sensor_id;sensor_type;location;lat;lon;timestamp;P1;durP1;ratioP1;P2;durP2;ratioP2
7049;SDS011;22263;52.260;10.548;2023-03-01T00:01:26;0.60;;;0.60;;
7049;SDS011;22263;52.260;10.548;2023-03-01T00:03:59;0.77;;;0.77;;
7049;SDS011;22263;52.260;10.548;2023-03-01T00:06:31;0.50;;;0.50;;
7049;SDS011;22263;52.260;10.548;2023-03-01T00:09:05;0.80;;;0.80;;
7049;SDS011;22263;52.260;10.548;2023-03-01T00:11:35;0.70;;;0.70;;
7049;SDS011;22263;52.260;10.548;2023-03-01T00:14:05;0.47;;;0.47;;
7049;SDS011;22263;52.260;10.548;2023-03-01T00:16:36;0.80;;;0.80;;
7049;SDS011;22263;52.260;10.548;2023-03-01T00:19:09;0.55;;;0.55;;
7049;SDS011;22263;52.260;10.548;2023-03-01T00:21:42;0.80;;;0.80;;
7049;SDS011;22263;52.260;10.548;2023-03-01T00:24:17;0.75;;;0.75;;
7049;SDS011;22263;52.260;10.548;2023-03-01T00:26:47;0.60;;;0.60;;
7049;SDS011;22263;52.260;10.548;2023-03-01T00:29:17;0.80;;;0.80;;
7049;SDS011;22263;52.260;10.548;2023-03-01T00:31:46;0.77;;;0.77;;
7049;SDS011;22263;52.260;10.548;2023-03-01T00:34:17;0.55;;;0.55;;
7049;SDS011;22263;52.260;10.548;2023-03-01T00:36:46;0.70;;;0.70;;
7049;SDS011;22263;52.260;10.548;2023-03-01T00:39:19;0.50;;;0.50;;
7049;SDS011;22263;52.260;10.548;2023-03-01T00:41:54;0.65;;;0.65;;
7049;SDS011;22263;52.260;10.548;2023-03-01T00:44:24;0.80;;;0.80;;
7049;SDS011;22263;52.260;10.548;2023-03-01T00:46:54;0.73;;;0.73;;
7049;SDS011;22263;52.260;10.548;2023-03-01T00:49:30;0.70;;;0.70;;
7049;SDS011;22263;52.260;10.548;2023-03-01T00:52:01;0.60;;;0.60;;
7049;SDS011;22263;52.260;10.548;2023-03-01T00:54:33;0.73;;;0.73;;
7049;SDS011;22263;52.260;10.548;2023-03-01T00:57:03;0.80;;;0.80;;
7049;SDS011;22263;52.260;10.548;2023-03-01T00:59:42;0.63;;;0.63;;
7049;SDS011;22263;52.260;10.548;2023-03-01T01:02:12;0.75;;;0.75;;
7049;SDS011;22263;52.260;10.548;2023-03-01T01:04:44;0.50;;;0.50;;
7049;SDS011;22263;52.260;10.548;2023-03-01T01:07:14;0.50;;;0.50;;
7049;SDS011;22263;52.260;10.548;2023-03-01T01:09:49;0.50;;;0.50;;
7049;SDS011;22263;52.260;10.548;2023-03-01T01:12:19;0.45;;;0.45;;
7049;SDS011;22263;52.260;10.548;2023-03-01T01:14:48;0.68;;;0.68;;
7049;SDS011;22263;52.260;10.548;2023-03-01T01:17:18;0.70;;;0.70;;
7049;SDS011;22263;52.260;10.548;2023-03-01T01:19:48;0.80;;;0.80;;
7049;SDS011;22263;52.260;10.548;2023-03-01T01:22:18;0.70;;;0.70;;
7049;SDS011;22263;52.260;10.548;2023-03-01T01:24:53;0.70;;;0.70;;
7049;SDS011;22263;52.260;10.548;2023-03-01T01:27:23;0.80;;;0.80;;
7049;SDS011;22263;52.260;10.548;2023-03-01T01:29:53;0.50;;;0.50;;
7049;SDS011;22263;52.260;10.548;2023-03-01T01:32:23;0.80;;;0.80;;
7049;SDS011;22263;52.260;10.548;2023-03-01T01:34:53;0.80;;;0.80;;
7049;SDS011;22263;52.260;10.548;2023-03-01T01:37:23;0.50;;;0.50;;
7049;SDS011;22263;52.260;10.548;2023-03-01T01:40:00;0.70;;;0.70;;
7049;SDS011;22263;52.260;10.548;2023-03-01T01:42:30;0.80;;;0.80;;
7049;SDS011;22263;52.260;10.548;2023-03-01T01:48:06;0.70;;;0.70;;
7049;SDS011;22263;52.260;10.548;2023-03-01T01:50:42;0.63;;;0.63;;
7049;SDS011;22263;52.260;10.548;2023-03-01T01:53:14;0.55;;;0.55;;
7049;SDS011;22263;52.260;10.548;2023-03-01T01:55:51;0.73;;;0.73;;
7049;SDS011;22263;52.260;10.548;2023-03-01T01:58:25;0.80;;;0.80;;
7049;SDS011;22263;52.260;10.548;2023-03-01T02:00:59;0.60;;;0.60;;
7049;SDS011;22263;52.260;10.548;2023-03-01T02:03:30;0.80;;;0.80;;
7049;SDS011;22263;52.260;10.548;2023-03-01T02:06:05;0.40;;;0.40;;
7049;SDS011;22263;52.260;10.548;2023-03-01T02:08:41;0.50;;;0.50;;
7049;SDS011;22263;52.260;10.548;2023-03-01T02:11:14;0.80;;;0.80;;
7049;SDS011;22263;52.260;10.548;2023-03-01T02:13:47;0.47;;;0.47;;
7049;SDS011;22263;52.260;10.548;2023-03-01T02:16:17;0.50;;;0.50;;
7049;SDS011;22263;52.260;10.548;2023-03-01T02:18:47;0.60;;;0.60;;
7049;SDS011;22263;52.260;10.548;2023-03-01T02:21:29;0.60;;;0.60;;
7049;SDS011;22263;52.260;10.548;2023-03-01T02:24:06;0.60;;;0.60;;
7049;SDS011;22263;52.260;10.548;2023-03-01T02:26:51;0.67;;;0.67;;
7049;SDS011;22263;52.260;10.548;2023-03-01T02:29:26;0.50;;;0.50;;
7049;SDS011;22263;52.260;10.548;2023-03-01T02:31:58;0.70;;;0.70;;
7049;SDS011;22263;52.260;10.548;2023-03-01T02:34:31;0.73;;;0.73;;
7049;SDS011;22263;52.260;10.548;2023-03-01T02:37:03;0.50;;;0.50;;
7049;SDS011;22263;52.260;10.548;2023-03-01T02:39:36;0.52;;;0.52;;
7049;SDS011;22263;52.260;10.548;2023-03-01T02:42:11;0.60;;;0.60;;
7049;SDS011;22263;52.260;10.548;2023-03-01T02:44:46;0.60;;;0.60;;
7049;SDS011;22263;52.260;10.548;2023-03-01T02:47:21;0.70;;;0.70;;
7049;SDS011;22263;52.260;10.548;2023-03-01T02:49:51;0.70;;;0.70;;
7049;SDS011;22263;52.260;10.548;2023-03-01T02:52:33;0.50;;;0.50;;
7049;SDS011;22263;52.260;10.548;2023-03-01T02:55:11;0.50;;;0.50;;
7049;SDS011;22263;52.260;10.548;2023-03-01T02:57:44;0.45;;;0.45;;
7049;SDS011;22263;52.260;10.548;2023-03-01T03:00:22;0.73;;;0.73;;
7049;SDS011;22263;52.260;10.548;2023-03-01T03:02:56;0.60;;;0.60;;
7049;SDS011;22263;52.260;10.548;2023-03-01T03:05:28;0.80;;;0.80;;
7049;SDS011;22263;52.260;10.548;2023-03-01T03:07:59;0.60;;;0.60;;
7049;SDS011;22263;52.260;10.548;2023-03-01T03:10:36;0.63;;;0.63;;
7049;SDS011;22263;52.260;10.548;2023-03-01T03:13:13;0.60;;;0.60;;
7049;SDS011;22263;52.260;10.548;2023-03-01T03:15:47;0.40;;;0.40;;
7049;SDS011;22263;52.260;10.548;2023-03-01T03:18:17;0.60;;;0.60;;
7049;SDS011;22263;52.260;10.548;2023-03-01T03:20:47;0.60;;;0.60;;
7049;SDS011;22263;52.260;10.548;2023-03-01T03:23:20;0.60;;;0.60;;
7049;SDS011;22263;52.260;10.548;2023-03-01T03:26:01;0.60;;;0.60;;
7049;SDS011;22263;52.260;10.548;2023-03-01T03:28:32;0.60;;;0.60;;
7049;SDS011;22263;52.260;10.548;2023-03-01T03:31:09;0.77;;;0.77;;
7049;SDS011;22263;52.260;10.548;2023-03-01T03:33:39;0.70;;;0.70;;
7049;SDS011;22263;52.260;10.548;2023-03-01T03:36:09;0.50;;;0.50;;
7049;SDS011;22263;52.260;10.548;2023-03-01T03:38:39;0.65;;;0.65;;
7049;SDS011;22263;52.260;10.548;2023-03-01T03:41:09;0.50;;;0.50;;
7049;SDS011;22263;52.260;10.548;2023-03-01T03:43:40;0.55;;;0.55;;
7049;SDS011;22263;52.260;10.548;2023-03-01T03:46:13;0.82;;;0.82;;
7049;SDS011;22263;52.260;10.548;2023-03-01T03:48:44;0.57;;;0.57;;
7049;SDS011;22263;52.260;10.548;2023-03-01T03:51:16;0.70;;;0.70;;
7049;SDS011;22263;52.260;10.548;2023-03-01T03:53:49;0.50;;;0.50;;
7049;SDS011;22263;52.260;10.548;2023-03-01T03:56:18;0.40;;;0.40;;
7049;SDS011;22263;52.260;10.548;2023-03-01T03:58:54;0.68;;;0.68;;
7049;SDS011;22263;52.260;10.548;2023-03-01T04:01:26;0.60;;;0.60;;
7049;SDS011;22263;52.260;10.548;2023-03-01T04:04:00;0.57;;;0.57;;
7049;SDS011;22263;52.260;10.548;2023-03-01T04:06:31;0.60;;;0.60;;
7049;SDS011;22263;52.260;10.548;2023-03-01T04:09:01;0.50;;;0.50;;
7049;SDS011;22263;52.260;10.548;2023-03-01T04:11:31;0.80;;;0.80;;
7049;SDS011;22263;52.260;10.548;2023-03-01T04:14:02;0.70;;;0.70;;
7049;SDS011;22263;52.260;10.548;2023-03-01T04:16:34;0.60;;;0.60;;
7049;SDS011;22263;52.260;10.548;2023-03-01T04:19:04;0.70;;;0.70;;
7049;SDS011;22263;52.260;10.548;2023-03-01T04:21:36;0.80;;;0.80;;
7049;SDS011;22263;52.260;10.548;2023-03-01T04:24:06;0.40;;;0.40;;
7049;SDS011;22263;52.260;10.548;2023-03-01T04:26:36;0.70;;;0.70;;
7049;SDS011;22263;52.260;10.548;2023-03-01T04:29:06;0.50;;;0.50;;
7049;SDS011;22263;52.260;10.548;2023-03-01T04:31:38;0.77;;;0.77;;
7049;SDS011;22263;52.260;10.548;2023-03-01T04:34:08;0.70;;;0.70;;
7049;SDS011;22263;52.260;10.548;2023-03-01T04:36:40;0.70;;;0.70;;
7049;SDS011;22263;52.260;10.548;2023-03-01T04:39:10;0.60;;;0.60;;
7049;SDS011;22263;52.260;10.548;2023-03-01T04:41:41;0.60;;;0.60;;
7049;SDS011;22263;52.260;10.548;2023-03-01T04:44:11;0.70;;;0.70;;
7049;SDS011;22263;52.260;10.548;2023-03-01T04:46:43;0.63;;;0.63;;
7049;SDS011;22263;52.260;10.548;2023-03-01T04:49:13;0.70;;;0.70;;
7049;SDS011;22263;52.260;10.548;2023-03-01T04:51:42;0.70;;;0.70;;
7049;SDS011;22263;52.260;10.548;2023-03-01T04:54:12;0.60;;;0.60;;
7049;SDS011;22263;52.260;10.548;2023-03-01T04:56:41;0.70;;;0.70;;
7049;SDS011;22263;52.260;10.548;2023-03-01T04:59:11;0.60;;;0.60;;
7049;SDS011;22263;52.260;10.548;2023-03-01T05:01:43;0.40;;;0.40;;
7049;SDS011;22263;52.260;10.548;2023-03-01T05:04:12;0.73;;;0.73;;
7049;SDS011;22263;52.260;10.548;2023-03-01T05:06:42;0.50;;;0.50;;
7049;SDS011;22263;52.260;10.548;2023-03-01T05:09:12;0.60;;;0.60;;
7049;SDS011;22263;52.260;10.548;2023-03-01T05:11:42;0.60;;;0.60;;
7049;SDS011;22263;52.260;10.548;2023-03-01T05:14:11;0.60;;;0.60;;
7049;SDS011;22263;52.260;10.548;2023-03-01T05:16:44;0.52;;;0.52;;
7049;SDS011;22263;52.260;10.548;2023-03-01T05:19:13;0.60;;;0.60;;
7049;SDS011;22263;52.260;10.548;2023-03-01T05:21:49;0.52;;;0.52;;
7049;SDS011;22263;52.260;10.548;2023-03-01T05:24:32;0.70;;;0.70;;
7049;SDS011;22263;52.260;10.548;2023-03-01T05:27:05;0.60;;;0.60;;
7049;SDS011;22263;52.260;10.548;2023-03-01T05:29:35;0.50;;;0.50;;
7049;SDS011;22263;52.260;10.548;2023-03-01T05:32:08;0.55;;;0.55;;
7049;SDS011;22263;52.260;10.548;2023-03-01T05:34:42;0.67;;;0.67;;
7049;SDS011;22263;52.260;10.548;2023-03-01T05:37:12;0.60;;;0.60;;
7049;SDS011;22263;52.260;10.548;2023-03-01T05:39:42;0.50;;;0.50;;
7049;SDS011;22263;52.260;10.548;2023-03-01T05:42:14;0.60;;;0.60;;
7049;SDS011;22263;52.260;10.548;2023-03-01T05:44:43;0.70;;;0.70;;
7049;SDS011;22263;52.260;10.548;2023-03-01T05:47:15;0.50;;;0.50;;
7049;SDS011;22263;52.260;10.548;2023-03-01T05:49:45;0.60;;;0.60;;
7049;SDS011;22263;52.260;10.548;2023-03-01T05:52:16;0.70;;;0.70;;
7049;SDS011;22263;52.260;10.548;2023-03-01T05:54:46;0.50;;;0.50;;
7049;SDS011;22263;52.260;10.548;2023-03-01T05:57:15;0.60;;;0.60;;
7049;SDS011;22263;52.260;10.548;2023-03-01T05:59:45;0.60;;;0.60;;
7049;SDS011;22263;52.260;10.548;2023-03-01T06:02:17;0.63;;;0.63;;
7049;SDS011;22263;52.260;10.548;2023-03-01T06:04:47;0.63;;;0.63;;
7049;SDS011;22263;52.260;10.548;2023-03-01T06:07:17;0.70;;;0.70;;
7049;SDS011;22263;52.260;10.548;2023-03-01T06:09:46;0.60;;;0.60;;
7049;SDS011;22263;52.260;10.548;2023-03-01T06:12:16;0.50;;;0.50;;
7049;SDS011;22263;52.260;10.548;2023-03-01T06:14:46;0.50;;;0.50;;
7049;SDS011;22263;52.260;10.548;2023-03-01T06:17:19;0.67;;;0.67;;
7049;SDS011;22263;52.260;10.548;2023-03-01T06:19:49;0.60;;;0.60;;
7049;SDS011;22263;52.260;10.548;2023-03-01T06:22:18;0.52;;;0.52;;
7049;SDS011;22263;52.260;10.548;2023-03-01T06:24:48;0.60;;;0.60;;
7049;SDS011;22263;52.260;10.548;2023-03-01T06:27:17;0.45;;;0.45;;
7049;SDS011;22263;52.260;10.548;2023-03-01T06:29:47;0.50;;;0.50;;
7049;SDS011;22263;52.260;10.548;2023-03-01T06:32:19;0.60;;;0.60;;
7049;SDS011;22263;52.260;10.548;2023-03-01T06:34:49;0.50;;;0.50;;
7049;SDS011;22263;52.260;10.548;2023-03-01T06:37:19;0.60;;;0.60;;
7049;SDS011;22263;52.260;10.548;2023-03-01T06:39:49;0.52;;;0.52;;
7049;SDS011;22263;52.260;10.548;2023-03-01T06:42:19;0.57;;;0.57;;
7049;SDS011;22263;52.260;10.548;2023-03-01T06:44:48;0.60;;;0.60;;
7049;SDS011;22263;52.260;10.548;2023-03-01T06:47:20;0.70;;;0.70;;
7049;SDS011;22263;52.260;10.548;2023-03-01T06:49:50;0.80;;;0.80;;
7049;SDS011;22263;52.260;10.548;2023-03-01T06:52:20;0.60;;;0.60;;
7049;SDS011;22263;52.260;10.548;2023-03-01T06:54:49;0.38;;;0.38;;
7049;SDS011;22263;52.260;10.548;2023-03-01T06:57:19;0.60;;;0.60;;
7049;SDS011;22263;52.260;10.548;2023-03-01T06:59:49;0.70;;;0.70;;
7049;SDS011;22263;52.260;10.548;2023-03-01T07:02:21;0.70;;;0.70;;
7049;SDS011;22263;52.260;10.548;2023-03-01T07:04:51;0.50;;;0.50;;
7049;SDS011;22263;52.260;10.548;2023-03-01T07:07:21;0.70;;;0.70;;
7049;SDS011;22263;52.260;10.548;2023-03-01T07:09:51;0.80;;;0.80;;
7049;SDS011;22263;52.260;10.548;2023-03-01T07:12:20;0.57;;;0.57;;
7049;SDS011;22263;52.260;10.548;2023-03-01T07:14:50;0.43;;;0.43;;
7049;SDS011;22263;52.260;10.548;2023-03-01T07:17:22;0.50;;;0.50;;
7049;SDS011;22263;52.260;10.548;2023-03-01T07:19:51;0.65;;;0.65;;
7049;SDS011;22263;52.260;10.548;2023-03-01T07:22:21;0.70;;;0.70;;
7049;SDS011;22263;52.260;10.548;2023-03-01T07:24:50;0.60;;;0.60;;
7049;SDS011;22263;52.260;10.548;2023-03-01T07:27:20;0.55;;;0.55;;
7049;SDS011;22263;52.260;10.548;2023-03-01T07:29:50;0.80;;;0.80;;
7049;SDS011;22263;52.260;10.548;2023-03-01T07:32:22;0.60;;;0.60;;
7049;SDS011;22263;52.260;10.548;2023-03-01T07:34:52;0.70;;;0.70;;
7049;SDS011;22263;52.260;10.548;2023-03-01T07:37:21;0.60;;;0.60;;
7049;SDS011;22263;52.260;10.548;2023-03-01T07:39:51;0.80;;;0.80;;
7049;SDS011;22263;52.260;10.548;2023-03-01T07:42:20;0.50;;;0.50;;
7049;SDS011;22263;52.260;10.548;2023-03-01T07:44:50;0.70;;;0.70;;
7049;SDS011;22263;52.260;10.548;2023-03-01T07:47:22;0.60;;;0.60;;
7049;SDS011;22263;52.260;10.548;2023-03-01T07:49:52;0.50;;;0.50;;
7049;SDS011;22263;52.260;10.548;2023-03-01T07:52:21;0.70;;;0.70;;
7049;SDS011;22263;52.260;10.548;2023-03-01T07:54:51;0.57;;;0.57;;
7049;SDS011;22263;52.260;10.548;2023-03-01T07:57:21;0.70;;;0.70;;
7049;SDS011;22263;52.260;10.548;2023-03-01T07:59:51;0.60;;;0.60;;
7049;SDS011;22263;52.260;10.548;2023-03-01T08:02:23;0.50;;;0.50;;
7049;SDS011;22263;52.260;10.548;2023-03-01T08:04:52;0.50;;;0.50;;
7049;SDS011;22263;52.260;10.548;2023-03-01T08:07:22;0.50;;;0.50;;
7049;SDS011;22263;52.260;10.548;2023-03-01T08:09:51;0.50;;;0.50;;
7049;SDS011;22263;52.260;10.548;2023-03-01T08:12:21;0.50;;;0.50;;
7049;SDS011;22263;52.260;10.548;2023-03-01T08:14:51;0.50;;;0.50;;
7049;SDS011;22263;52.260;10.548;2023-03-01T08:17:23;0.40;;;0.40;;
7049;SDS011;22263;52.260;10.548;2023-03-01T08:19:52;0.70;;;0.70;;
7049;SDS011;22263;52.260;10.548;2023-03-01T08:22:22;0.50;;;0.50;;
7049;SDS011;22263;52.260;10.548;2023-03-01T08:24:51;0.43;;;0.43;;
7049;SDS011;22263;52.260;10.548;2023-03-01T08:27:22;0.45;;;0.45;;
7049;SDS011;22263;52.260;10.548;2023-03-01T08:29:51;0.60;;;0.60;;
7049;SDS011;22263;52.260;10.548;2023-03-01T08:32:23;0.50;;;0.50;;
7049;SDS011;22263;52.260;10.548;2023-03-01T08:34:53;0.50;;;0.50;;
7049;SDS011;22263;52.260;10.548;2023-03-01T08:37:23;0.40;;;0.40;;
7049;SDS011;22263;52.260;10.548;2023-03-01T08:39:52;0.40;;;0.40;;
7049;SDS011;22263;52.260;10.548;2023-03-01T08:42:22;0.43;;;0.43;;
7049;SDS011;22263;52.260;10.548;2023-03-01T08:44:52;0.50;;;0.50;;
7049;SDS011;22263;52.260;10.548;2023-03-01T08:47:24;0.40;;;0.40;;
7049;SDS011;22263;52.260;10.548;2023-03-01T08:49:53;0.30;;;0.30;;
7049;SDS011;22263;52.260;10.548;2023-03-01T08:52:23;0.40;;;0.40;;
7049;SDS011;22263;52.260;10.548;2023-03-01T08:54:53;0.40;;;0.40;;
7049;SDS011;22263;52.260;10.548;2023-03-01T08:57:23;0.40;;;0.40;;
7049;SDS011;22263;52.260;10.548;2023-03-01T08:59:53;0.40;;;0.40;;
7049;SDS011;22263;52.260;10.548;2023-03-01T09:02:25;0.40;;;0.40;;
7049;SDS011;22263;52.260;10.548;2023-03-01T09:04:54;0.40;;;0.40;;
7049;SDS011;22263;52.260;10.548;2023-03-01T09:07:24;0.35;;;0.35;;
7049;SDS011;22263;52.260;10.548;2023-03-01T09:09:55;0.40;;;0.40;;
7049;SDS011;22263;52.260;10.548;2023-03-01T09:12:25;0.30;;;0.30;;
7049;SDS011;22263;52.260;10.548;2023-03-01T09:14:54;0.40;;;0.40;;
7049;SDS011;22263;52.260;10.548;2023-03-01T09:17:27;0.30;;;0.30;;
7049;SDS011;22263;52.260;10.548;2023-03-01T09:19:56;0.30;;;0.30;;
7049;SDS011;22263;52.260;10.548;2023-03-01T09:22:26;0.40;;;0.40;;
7049;SDS011;22263;52.260;10.548;2023-03-01T09:24:56;0.35;;;0.35;;
7049;SDS011;22263;52.260;10.548;2023-03-01T09:27:25;0.38;;;0.38;;
7049;SDS011;22263;52.260;10.548;2023-03-01T09:29:55;0.30;;;0.30;;
7049;SDS011;22263;52.260;10.548;2023-03-01T09:32:28;0.30;;;0.30;;
7049;SDS011;22263;52.260;10.548;2023-03-01T09:34:59;0.30;;;0.30;;
7049;SDS011;22263;52.260;10.548;2023-03-01T09:37:33;0.30;;;0.30;;
7049;SDS011;22263;52.260;10.548;2023-03-01T09:40:04;0.40;;;0.40;;
7049;SDS011;22263;52.260;10.548;2023-03-01T09:42:35;0.30;;;0.30;;
7049;SDS011;22263;52.260;10.548;2023-03-01T09:45:24;0.30;;;0.30;;
7049;SDS011;22263;52.260;10.548;2023-03-01T09:48:00;0.30;;;0.30;;
7049;SDS011;22263;52.260;10.548;2023-03-01T09:50:32;0.30;;;0.30;;
7049;SDS011;22263;52.260;10.548;2023-03-01T09:53:05;0.30;;;0.30;;
7049;SDS011;22263;52.260;10.548;2023-03-01T09:55:40;0.30;;;0.30;;
7049;SDS011;22263;52.260;10.548;2023-03-01T09:58:25;0.30;;;0.30;;
7049;SDS011;22263;52.260;10.548;2023-03-01T10:01:10;0.30;;;0.30;;
7049;SDS011;22263;52.260;10.548;2023-03-01T10:04:05;0.30;;;0.30;;
7049;SDS011;22263;52.260;10.548;2023-03-01T10:06:56;0.30;;;0.30;;
7049;SDS011;22263;52.260;10.548;2023-03-01T10:09:34;0.30;;;0.30;;
7049;SDS011;22263;52.260;10.548;2023-03-01T10:12:08;0.30;;;0.30;;
7049;SDS011;22263;52.260;10.548;2023-03-01T10:14:42;0.30;;;0.30;;
7049;SDS011;22263;52.260;10.548;2023-03-01T10:17:24;0.30;;;0.30;;
7049;SDS011;22263;52.260;10.548;2023-03-01T10:20:10;0.30;;;0.30;;
7049;SDS011;22263;52.260;10.548;2023-03-01T10:22:46;0.30;;;0.30;;
7049;SDS011;22263;52.260;10.548;2023-03-01T10:25:23;0.30;;;0.30;;
7049;SDS011;22263;52.260;10.548;2023-03-01T10:28:01;0.30;;;0.30;;
7049;SDS011;22263;52.260;10.548;2023-03-01T10:30:35;0.30;;;0.30;;
7049;SDS011;22263;52.260;10.548;2023-03-01T10:33:13;0.30;;;0.30;;
7049;SDS011;22263;52.260;10.548;2023-03-01T10:35:49;0.30;;;0.30;;
7049;SDS011;22263;52.260;10.548;2023-03-01T10:38:19;0.20;;;0.20;;
7049;SDS011;22263;52.260;10.548;2023-03-01T10:40:50;0.20;;;0.20;;
7049;SDS011;22263;52.260;10.548;2023-03-01T10:43:23;0.30;;;0.30;;
7049;SDS011;22263;52.260;10.548;2023-03-01T10:45:54;0.30;;;0.30;;
7049;SDS011;22263;52.260;10.548;2023-03-01T10:48:24;0.30;;;0.30;;
7049;SDS011;22263;52.260;10.548;2023-03-01T10:51:06;0.30;;;0.30;;
7049;SDS011;22263;52.260;10.548;2023-03-01T10:53:37;0.25;;;0.25;;
7049;SDS011;22263;52.260;10.548;2023-03-01T10:56:10;0.30;;;0.30;;
7049;SDS011;22263;52.260;10.548;2023-03-01T10:58:56;0.30;;;0.30;;
7049;SDS011;22263;52.260;10.548;2023-03-01T11:01:28;0.30;;;0.30;;
7049;SDS011;22263;52.260;10.548;2023-03-01T11:04:10;0.20;;;0.20;;
7049;SDS011;22263;52.260;10.548;2023-03-01T11:06:43;0.25;;;0.25;;
7049;SDS011;22263;52.260;10.548;2023-03-01T11:09:29;0.30;;;0.30;;
7049;SDS011;22263;52.260;10.548;2023-03-01T11:12:05;0.20;;;0.20;;
7049;SDS011;22263;52.260;10.548;2023-03-01T11:14:46;0.20;;;0.20;;
7049;SDS011;22263;52.260;10.548;2023-03-01T11:17:17;0.20;;;0.20;;
7049;SDS011;22263;52.260;10.548;2023-03-01T11:20:02;0.20;;;0.20;;
7049;SDS011;22263;52.260;10.548;2023-03-01T11:22:48;0.30;;;0.30;;
7049;SDS011;22263;52.260;10.548;2023-03-01T11:25:23;0.20;;;0.20;;
7049;SDS011;22263;52.260;10.548;2023-03-01T11:27:55;0.20;;;0.20;;
7049;SDS011;22263;52.260;10.548;2023-03-01T11:30:26;0.20;;;0.20;;
7049;SDS011;22263;52.260;10.548;2023-03-01T11:33:03;0.20;;;0.20;;
7049;SDS011;22263;52.260;10.548;2023-03-01T11:35:42;0.20;;;0.20;;
7049;SDS011;22263;52.260;10.548;2023-03-01T11:38:20;0.22;;;0.22;;
7049;SDS011;22263;52.260;10.548;2023-03-01T11:40:53;0.30;;;0.30;;
7049;SDS011;22263;52.260;10.548;2023-03-01T11:43:28;0.30;;;0.30;;
7049;SDS011;22263;52.260;10.548;2023-03-01T11:49:15;0.20;;;0.20;;
7049;SDS011;22263;52.260;10.548;2023-03-01T11:52:00;0.30;;;0.30;;
7049;SDS011;22263;52.260;10.548;2023-03-01T11:54:45;0.30;;;0.30;;
7049;SDS011;22263;52.260;10.548;2023-03-01T11:57:26;0.20;;;0.20;;
7049;SDS011;22263;52.260;10.548;2023-03-01T12:06:12;0.17;;;0.17;;
7049;SDS011;22263;52.260;10.548;2023-03-01T12:08:55;0.20;;;0.20;;
7049;SDS011;22263;52.260;10.548;2023-03-01T12:11:48;0.20;;;0.20;;
7049;SDS011;22263;52.260;10.548;2023-03-01T12:14:44;0.20;;;0.20;;
7049;SDS011;22263;52.260;10.548;2023-03-01T12:17:28;0.20;;;0.20;;
7049;SDS011;22263;52.260;10.548;2023-03-01T12:20:24;0.20;;;0.20;;
7049;SDS011;22263;52.260;10.548;2023-03-01T12:23:07;0.20;;;0.20;;
7049;SDS011;22263;52.260;10.548;2023-03-01T12:25:52;0.20;;;0.20;;
7049;SDS011;22263;52.260;10.548;2023-03-01T12:28:42;0.10;;;0.10;;
7049;SDS011;22263;52.260;10.548;2023-03-01T12:34:44;0.20;;;0.20;;
7049;SDS011;22263;52.260;10.548;2023-03-01T12:37:25;0.10;;;0.10;;
7049;SDS011;22263;52.260;10.548;2023-03-01T12:40:18;0.20;;;0.20;;
7049;SDS011;22263;52.260;10.548;2023-03-01T12:42:58;0.20;;;0.20;;
7049;SDS011;22263;52.260;10.548;2023-03-01T12:45:50;0.10;;;0.10;;
7049;SDS011;22263;52.260;10.548;2023-03-01T12:48:30;0.20;;;0.20;;
7049;SDS011;22263;52.260;10.548;2023-03-01T12:51:10;0.20;;;0.20;;
7049;SDS011;22263;52.260;10.548;2023-03-01T12:53:44;0.20;;;0.20;;
7049;SDS011;22263;52.260;10.548;2023-03-01T12:56:17;0.20;;;0.20;;
7049;SDS011;22263;52.260;10.548;2023-03-01T12:58:51;0.20;;;0.20;;
7049;SDS011;22263;52.260;10.548;2023-03-01T13:01:35;0.20;;;0.20;;
7049;SDS011;22263;52.260;10.548;2023-03-01T13:04:22;0.30;;;0.30;;
7049;SDS011;22263;52.260;10.548;2023-03-01T13:09:55;0.20;;;0.20;;
7049;SDS011;22263;52.260;10.548;2023-03-01T13:12:42;0.20;;;0.20;;
7049;SDS011;22263;52.260;10.548;2023-03-01T13:18:26;0.20;;;0.20;;
7049;SDS011;22263;52.260;10.548;2023-03-01T13:20:59;0.20;;;0.20;;
7049;SDS011;22263;52.260;10.548;2023-03-01T13:23:33;0.20;;;0.20;;
7049;SDS011;22263;52.260;10.548;2023-03-01T13:26:08;0.20;;;0.20;;
7049;SDS011;22263;52.260;10.548;2023-03-01T13:28:46;0.30;;;0.30;;
7049;SDS011;22263;52.260;10.548;2023-03-01T13:37:25;0.30;;;0.30;;
7049;SDS011;22263;52.260;10.548;2023-03-01T13:39:57;0.30;;;0.30;;
7049;SDS011;22263;52.260;10.548;2023-03-01T13:42:32;0.22;;;0.22;;
7049;SDS011;22263;52.260;10.548;2023-03-01T13:45:17;0.30;;;0.30;;
7049;SDS011;22263;52.260;10.548;2023-03-01T13:47:54;0.30;;;0.30;;
7049;SDS011;22263;52.260;10.548;2023-03-01T13:50:33;0.30;;;0.30;;
7049;SDS011;22263;52.260;10.548;2023-03-01T13:53:09;0.28;;;0.28;;
7049;SDS011;22263;52.260;10.548;2023-03-01T13:55:44;0.20;;;0.20;;
7049;SDS011;22263;52.260;10.548;2023-03-01T13:58:19;0.30;;;0.30;;
7049;SDS011;22263;52.260;10.548;2023-03-01T14:00:56;0.20;;;0.20;;
7049;SDS011;22263;52.260;10.548;2023-03-01T14:03:28;0.30;;;0.30;;
7049;SDS011;22263;52.260;10.548;2023-03-01T14:06:03;0.20;;;0.20;;
7049;SDS011;22263;52.260;10.548;2023-03-01T14:08:43;0.30;;;0.30;;
7049;SDS011;22263;52.260;10.548;2023-03-01T14:11:20;0.30;;;0.30;;
7049;SDS011;22263;52.260;10.548;2023-03-01T14:14:06;0.30;;;0.30;;
7049;SDS011;22263;52.260;10.548;2023-03-01T14:16:49;0.30;;;0.30;;
7049;SDS011;22263;52.260;10.548;2023-03-01T14:19:28;0.30;;;0.30;;
7049;SDS011;22263;52.260;10.548;2023-03-01T14:22:04;0.30;;;0.30;;
7049;SDS011;22263;52.260;10.548;2023-03-01T14:24:44;0.30;;;0.30;;
7049;SDS011;22263;52.260;10.548;2023-03-01T14:27:18;0.30;;;0.30;;
7049;SDS011;22263;52.260;10.548;2023-03-01T14:29:54;0.30;;;0.30;;
7049;SDS011;22263;52.260;10.548;2023-03-01T14:32:26;0.30;;;0.30;;
7049;SDS011;22263;52.260;10.548;2023-03-01T14:34:57;0.30;;;0.30;;
7049;SDS011;22263;52.260;10.548;2023-03-01T14:37:31;0.30;;;0.30;;
7049;SDS011;22263;52.260;10.548;2023-03-01T14:40:03;0.30;;;0.30;;
7049;SDS011;22263;52.260;10.548;2023-03-01T14:42:34;0.30;;;0.30;;
7049;SDS011;22263;52.260;10.548;2023-03-01T14:45:05;0.30;;;0.30;;
7049;SDS011;22263;52.260;10.548;2023-03-01T14:47:43;0.30;;;0.30;;
7049;SDS011;22263;52.260;10.548;2023-03-01T14:50:22;0.30;;;0.30;;
7049;SDS011;22263;52.260;10.548;2023-03-01T14:52:57;0.30;;;0.30;;
7049;SDS011;22263;52.260;10.548;2023-03-01T14:55:30;0.30;;;0.30;;
7049;SDS011;22263;52.260;10.548;2023-03-01T14:58:02;0.30;;;0.30;;
7049;SDS011;22263;52.260;10.548;2023-03-01T15:00:33;0.30;;;0.30;;
7049;SDS011;22263;52.260;10.548;2023-03-01T15:03:06;0.30;;;0.30;;
7049;SDS011;22263;52.260;10.548;2023-03-01T15:05:40;0.40;;;0.40;;
7049;SDS011;22263;52.260;10.548;2023-03-01T15:08:16;0.30;;;0.30;;
7049;SDS011;22263;52.260;10.548;2023-03-01T15:10:55;0.30;;;0.30;;
7049;SDS011;22263;52.260;10.548;2023-03-01T15:13:28;0.30;;;0.30;;
7049;SDS011;22263;52.260;10.548;2023-03-01T15:16:01;0.30;;;0.30;;
7049;SDS011;22263;52.260;10.548;2023-03-01T15:18:34;0.30;;;0.30;;
7049;SDS011;22263;52.260;10.548;2023-03-01T15:21:06;0.40;;;0.40;;
7049;SDS011;22263;52.260;10.548;2023-03-01T15:23:40;0.40;;;0.40;;
7049;SDS011;22263;52.260;10.548;2023-03-01T15:26:19;0.40;;;0.40;;
7049;SDS011;22263;52.260;10.548;2023-03-01T15:28:54;0.40;;;0.40;;
7049;SDS011;22263;52.260;10.548;2023-03-01T15:31:27;0.40;;;0.40;;
7049;SDS011;22263;52.260;10.548;2023-03-01T15:34:19;0.40;;;0.40;;
7049;SDS011;22263;52.260;10.548;2023-03-01T15:36:51;0.40;;;0.40;;
7049;SDS011;22263;52.260;10.548;2023-03-01T15:39:36;0.30;;;0.30;;
7049;SDS011;22263;52.260;10.548;2023-03-01T15:42:10;0.40;;;0.40;;
7049;SDS011;22263;52.260;10.548;2023-03-01T15:44:43;0.30;;;0.30;;
7049;SDS011;22263;52.260;10.548;2023-03-01T15:47:23;0.30;;;0.30;;
7049;SDS011;22263;52.260;10.548;2023-03-01T15:49:55;0.40;;;0.40;;
7049;SDS011;22263;52.260;10.548;2023-03-01T15:52:28;0.40;;;0.40;;
7049;SDS011;22263;52.260;10.548;2023-03-01T15:55:07;0.40;;;0.40;;